Time;durP1;ratioP1;P1;durP2;ratioP2;P2;SDS_P1;SDS_P2;PMS_P1;PMS_P2;Temp;Humidity;BMP_temperature;BMP_pressure;BME280_temperature;BME280_humidity;BME280_pressure;Samples;Min_cycle;Max_cycle;Signal;HPM_P1;HPM_P2
2022/09/19 00:00:25;;;;;;;6.47;1.40;;;;;;;10.06;89.92;100018.31;5099524;28;20486;-67
2022/09/19 00:02:52;;;;;;;5.03;1.77;;;;;;;10.03;89.76;100019.41;5111028;28;20483;-66
2022/09/19 00:05:18;;;;;;;4.93;2.13;;;;;;;10.21;89.33;100016.88;5116473;28;20602;-68
2022/09/19 00:07:48;;;;;;;8.10;1.80;;;;;;;10.08;89.83;100021.66;5115444;28;20484;-67
2022/09/19 00:10:14;;;;;;;4.63;2.07;;;;;;;10.18;89.98;100022.50;5115312;28;20431;-67
2022/09/19 00:12:41;;;;;;;8.43;2.70;;;;;;;10.09;89.67;100023.38;5111703;28;20485;-68
2022/09/19 00:15:10;;;;;;;6.83;2.53;;;;;;;9.93;90.67;100024.78;5101998;28;20961;-68
2022/09/19 00:17:41;;;;;;;9.70;2.80;;;;;;;10.00;91.24;100019.72;5110506;28;20490;-68
2022/09/19 00:20:09;;;;;;;6.40;2.00;;;;;;;10.03;91.49;100030.09;5117857;28;20443;-68
2022/09/19 00:24:45;;;;;;;5.23;2.23;;;;;;;10.07;91.53;100039.53;5103616;28;20455;-68
2022/09/19 00:25:21;;;;;;;6.07;2.40;;;;;;;10.14;91.26;100037.13;5075596;28;20491;-67
2022/09/19 00:27:48;;;;;;;8.43;2.50;;;;;;;10.19;91.04;100042.91;5121419;28;20466;-68
2022/09/19 00:30:16;;;;;;;11.97;3.57;;;;;;;10.33;90.53;100041.63;5122082;28;20223;-68
2022/09/19 00:32:42;;;;;;;7.87;2.70;;;;;;;10.29;90.37;100050.88;5101026;28;20988;-69
2022/09/19 00:35:09;;;;;;;4.70;2.67;;;;;;;10.32;90.34;100055.97;5120566;28;20458;-67
2022/09/19 00:37:36;;;;;;;15.03;3.10;;;;;;;10.39;90.46;100050.91;5110467;28;20438;-67
2022/09/19 00:40:02;;;;;;;5.13;2.60;;;;;;;10.24;90.79;100047.78;5111624;28;20462;-68
2022/09/19 00:42:30;;;;;;;9.13;2.40;;;;;;;10.30;90.83;100034.69;5113058;28;20479;-68
2022/09/19 00:45:00;;;;;;;6.40;2.60;;;;;;;10.15;91.50;100047.66;5112706;28;20531;-68
2022/09/19 00:47:33;;;;;;;10.27;3.10;;;;;;;10.14;91.75;100046.00;5112042;28;20478;-67
2022/09/19 00:50:01;;;;;;;10.50;2.90;;;;;;;10.13;91.28;100054.97;5115183;28;20468;-69
2022/09/19 00:52:33;;;;;;;9.57;4.07;;;;;;;10.09;91.87;100058.94;5103938;28;20520;-66
2022/09/19 00:55:00;;;;;;;5.33;2.57;;;;;;;10.10;91.57;100055.28;5104018;28;20434;-67
2022/09/19 00:57:33;;;;;;;7.87;3.00;;;;;;;10.11;91.59;100064.13;5120206;28;20478;-67
2022/09/19 01:00:00;;;;;;;10.80;2.60;;;;;;;10.06;92.01;100066.38;5117372;28;20473;-66
2022/09/19 01:02:29;;;;;;;10.93;2.83;;;;;;;10.18;91.86;100066.06;5091754;28;20473;-67
2022/09/19 01:04:56;;;;;;;9.37;3.00;;;;;;;10.10;91.61;100073.97;5109738;28;20475;-65
2022/09/19 01:07:30;;;;;;;9.27;2.60;;;;;;;9.99;91.95;100061.59;5103288;28;20510;-66
2022/09/19 01:10:02;;;;;;;4.53;2.27;;;;;;;9.97;92.36;100076.09;5104144;28;20477;-66
2022/09/19 01:12:37;;;;;;;5.30;2.40;;;;;;;10.08;92.37;100073.25;5105742;28;20529;-66
2022/09/19 01:15:19;;;;;;;6.33;2.47;;;;;;;10.17;91.59;100079.56;5121581;28;20449;-66
2022/09/19 01:17:49;;;;;;;8.30;3.10;;;;;;;10.18;91.90;100082.09;5113867;28;20466;-66
2022/09/19 01:20:54;;;;;;;5.63;2.70;;;;;;;10.27;91.28;100088.41;5121119;28;20834;-66
2022/09/19 01:23:34;;;;;;;7.73;2.60;;;;;;;10.20;91.22;100078.47;5111529;28;20461;-67
2022/09/19 01:26:08;;;;;;;8.83;2.77;;;;;;;10.33;91.10;100079.06;5103612;28;20486;-67
2022/09/19 01:28:37;;;;;;;5.23;2.97;;;;;;;10.21;90.92;100082.81;5116962;28;20445;-67
2022/09/19 01:31:20;;;;;;;9.73;3.10;;;;;;;10.17;91.29;100085.78;5099840;28;20499;-67
2022/09/19 01:33:52;;;;;;;6.57;2.80;;;;;;;10.26;91.74;100077.88;5100369;28;20455;-69
2022/09/19 01:36:21;;;;;;;7.90;2.93;;;;;;;10.29;91.58;100081.09;5100067;28;20475;-68
2022/09/19 01:38:51;;;;;;;7.63;2.67;;;;;;;10.40;91.12;100092.66;5101255;28;20450;-68
2022/09/19 01:41:21;;;;;;;8.67;2.93;;;;;;;10.25;91.36;100090.41;5105207;28;20489;-69
2022/09/19 01:43:49;;;;;;;8.27;2.47;;;;;;;10.30;91.75;100081.97;5107484;28;20514;-68
2022/09/19 01:46:23;;;;;;;9.30;2.90;;;;;;;10.31;91.55;100091.66;5089565;28;20502;-68
2022/09/19 01:48:54;;;;;;;7.20;3.63;;;;;;;10.32;91.42;100094.22;5089418;28;20455;-68
2022/09/19 01:51:28;;;;;;;13.23;3.73;;;;;;;10.29;91.99;100094.47;5099485;28;20493;-68
2022/09/19 01:54:07;;;;;;;5.53;2.77;;;;;;;10.45;91.32;100091.25;5109873;28;20447;-66
2022/09/19 01:56:42;;;;;;;7.80;3.10;;;;;;;10.47;90.95;100091.13;5115499;28;20481;-65
2022/09/19 01:59:20;;;;;;;6.07;2.83;;;;;;;10.44;91.18;100102.94;5104595;28;20470;-65
2022/09/19 02:01:50;;;;;;;10.37;3.63;;;;;;;10.40;90.96;100112.22;5094823;28;20535;-66
2022/09/19 02:04:21;;;;;;;8.83;3.47;;;;;;;10.40;91.66;100106.88;5117496;28;20438;-67
2022/09/19 02:06:51;;;;;;;6.00;3.60;;;;;;;10.36;91.90;100109.00;5102391;28;20479;-66
2022/09/19 02:09:23;;;;;;;8.47;3.67;;;;;;;10.55;91.52;100118.81;5113810;28;20548;-66
2022/09/19 02:11:51;;;;;;;13.30;3.87;;;;;;;10.38;92.17;100119.56;5118321;28;20485;-65
2022/09/19 02:14:21;;;;;;;9.23;4.27;;;;;;;10.52;92.29;100119.09;5104733;28;20458;-66
2022/09/19 02:16:51;;;;;;;8.83;4.90;;;;;;;10.49;91.67;100122.06;5094235;28;20481;-66
2022/09/19 02:19:21;;;;;;;11.53;4.00;;;;;;;10.41;92.05;100116.56;5094269;28;20474;-65
2022/09/19 02:21:53;;;;;;;7.00;3.60;;;;;;;10.43;92.02;100127.94;5098494;28;20530;-66
2022/09/19 02:24:23;;;;;;;9.03;3.60;;;;;;;10.55;91.77;100121.50;5101873;28;20476;-66
2022/09/19 02:26:52;;;;;;;13.30;4.23;;;;;;;10.61;90.86;100129.94;5109889;28;20497;-66
2022/09/19 02:29:23;;;;;;;8.47;3.83;;;;;;;10.48;91.79;100127.53;5080220;28;21327;-66
2022/09/19 02:31:51;;;;;;;11.87;3.70;;;;;;;10.46;91.68;100127.69;5111868;28;20482;-65
2022/09/19 02:34:18;;;;;;;13.17;4.47;;;;;;;10.53;92.04;100128.78;5112694;28;20507;-66
2022/09/19 02:36:50;;;;;;;10.27;3.80;;;;;;;10.55;91.79;100132.19;5092225;28;20476;-67
2022/09/19 02:39:21;;;;;;;12.50;4.17;;;;;;;10.44;92.27;100132.31;5101243;28;20457;-67
2022/09/19 02:41:52;;;;;;;8.33;3.63;;;;;;;10.51;92.82;100136.09;5099240;28;20516;-65
2022/09/19 02:44:23;;;;;;;10.97;3.90;;;;;;;10.61;92.27;100130.75;5114015;28;20478;-66
2022/09/19 02:46:55;;;;;;;8.90;3.70;;;;;;;10.59;92.38;100138.09;5101674;28;20483;-66
2022/09/19 02:49:34;;;;;;;16.80;4.83;;;;;;;10.55;92.09;100140.19;5112874;28;20435;-66
2022/09/19 02:52:04;;;;;;;7.20;3.20;;;;;;;10.60;92.62;100137.06;5106527;28;20483;-66
2022/09/19 02:54:32;;;;;;;14.67;3.40;;;;;;;10.62;92.12;100156.47;5099741;28;20470;-66
2022/09/19 02:57:01;;;;;;;10.80;3.97;;;;;;;10.70;92.42;100153.94;5098584;28;21032;-66
2022/09/19 02:59:31;;;;;;;10.40;4.30;;;;;;;10.65;92.09;100152.69;5099476;28;20447;-65
2022/09/19 03:02:01;;;;;;;8.17;3.87;;;;;;;10.65;92.78;100160.72;5101076;28;20508;-65
2022/09/19 03:04:31;;;;;;;10.63;3.50;;;;;;;10.58;92.98;100159.59;5115589;28;20443;-67
2022/09/19 03:07:02;;;;;;;7.77;3.90;;;;;;;10.65;93.04;100150.84;5106115;28;20506;-67
2022/09/19 03:09:30;;;;;;;11.00;3.97;;;;;;;10.68;92.52;100157.75;5105923;28;20442;-67
2022/09/19 03:12:00;;;;;;;13.93;3.60;;;;;;;10.58;92.87;100151.59;5124104;28;20466;-67
2022/09/19 03:14:30;;;;;;;13.70;4.40;;;;;;;10.62;92.88;100158.31;5091675;28;20466;-67
2022/09/19 03:16:58;;;;;;;8.93;4.60;;;;;;;10.61;93.19;100162.84;5099685;28;20550;-67
2022/09/19 03:19:25;;;;;;;10.70;4.10;;;;;;;10.54;93.22;100157.22;5112793;28;20443;-67
2022/09/19 03:21:54;;;;;;;12.10;4.17;;;;;;;10.59;93.03;100167.50;5112330;28;20492;-69
2022/09/19 03:24:21;;;;;;;7.30;3.77;;;;;;;10.81;92.70;100168.97;5120519;28;20470;-66
2022/09/19 03:26:48;;;;;;;20.10;4.60;;;;;;;10.72;92.52;100165.34;5105100;28;20475;-68
2022/09/19 03:29:16;;;;;;;11.90;4.53;;;;;;;10.64;92.56;100159.88;5107290;28;20507;-68
2022/09/19 03:31:45;;;;;;;14.37;4.30;;;;;;;10.68;92.26;100165.78;5105439;28;20930;-69
2022/09/19 03:34:12;;;;;;;13.70;4.20;;;;;;;10.66;92.40;100163.25;5115170;28;20523;-66
2022/09/19 03:36:40;;;;;;;7.63;3.77;;;;;;;10.57;92.47;100166.75;5124333;28;20502;-66
2022/09/19 03:39:07;;;;;;;11.27;4.63;;;;;;;10.80;92.08;100169.13;5126533;28;20446;-66
2022/09/19 03:41:34;;;;;;;10.70;4.60;;;;;;;10.57;92.44;100172.09;5123103;28;20477;-67
2022/09/19 03:44:01;;;;;;;12.57;4.10;;;;;;;10.56;92.66;100173.13;5106988;28;20542;-67
2022/09/19 03:46:30;;;;;;;9.30;4.23;;;;;;;10.57;92.56;100181.97;5106020;28;20478;-66
2022/09/19 03:49:00;;;;;;;11.50;4.87;;;;;;;10.57;92.83;100179.28;5105440;28;20439;-67
2022/09/19 03:51:27;;;;;;;13.50;4.50;;;;;;;10.56;92.89;100186.47;5110737;28;21223;-66
2022/09/19 03:53:55;;;;;;;11.33;4.10;;;;;;;10.57;93.24;100188.16;5126279;28;20453;-66
2022/09/19 03:56:21;;;;;;;13.50;5.23;;;;;;;10.69;92.98;100191.53;5125235;28;20475;-66
2022/09/19 03:58:48;;;;;;;12.20;4.87;;;;;;;10.77;92.81;100188.97;5124481;28;20438;-67
2022/09/19 04:01:15;;;;;;;16.23;4.60;;;;;;;10.74;93.00;100194.59;5105080;28;20474;-67
2022/09/19 04:03:42;;;;;;;10.67;3.97;;;;;;;10.65;92.75;100192.81;5107439;28;20451;-67
2022/09/19 04:06:11;;;;;;;16.30;4.57;;;;;;;10.66;92.98;100192.66;5104170;28;20489;-66
2022/09/19 04:08:37;;;;;;;8.53;4.70;;;;;;;10.70;92.78;100201.25;5106284;28;20427;-67
2022/09/19 04:11:04;;;;;;;10.37;4.60;;;;;;;10.63;92.85;100197.44;5104726;28;20481;-65
2022/09/19 04:13:33;;;;;;;12.80;4.43;;;;;;;10.68;93.19;100205.91;5121808;28;20798;-66
2022/09/19 04:16:00;;;;;;;17.73;4.93;;;;;;;10.84;92.87;100203.47;5119698;28;20504;-66
2022/09/19 04:18:27;;;;;;;11.77;5.07;;;;;;;10.77;93.15;100205.03;5122535;28;20481;-66
2022/09/19 04:20:53;;;;;;;11.57;4.43;;;;;;;10.81;93.21;100214.44;5121689;28;20470;-67
2022/09/19 04:23:21;;;;;;;14.30;5.70;;;;;;;10.77;93.13;100209.53;5113127;28;20837;-66
2022/09/19 04:25:48;;;;;;;14.67;4.97;;;;;;;10.80;93.54;100209.22;5111198;28;21012;-65
2022/09/19 04:28:17;;;;;;;10.40;5.30;;;;;;;10.76;93.75;100216.69;5096032;28;20471;-65
2022/09/19 04:30:44;;;;;;;16.00;5.47;;;;;;;10.84;93.74;100221.34;5111305;28;20466;-66
2022/09/19 04:33:12;;;;;;;14.97;5.60;;;;;;;10.85;93.47;100213.19;5123056;28;20472;-66
2022/09/19 04:35:40;;;;;;;13.73;7.10;;;;;;;10.83;93.68;100223.19;5104426;28;20467;-66
2022/09/19 04:38:08;;;;;;;16.30;8.53;;;;;;;10.78;93.68;100222.78;5098514;28;20468;-65
2022/09/19 04:40:39;;;;;;;17.00;7.63;;;;;;;10.78;93.84;100221.91;5100552;28;20496;-66
2022/09/19 04:43:06;;;;;;;21.17;8.50;;;;;;;10.84;94.02;100224.03;5091786;28;20447;-66
2022/09/19 04:45:33;;;;;;;16.73;7.27;;;;;;;10.76;94.45;100230.06;5101496;28;20470;-67
2022/09/19 04:47:59;;;;;;;20.13;8.03;;;;;;;10.85;94.30;100225.69;5104319;28;20442;-68
2022/09/19 04:50:26;;;;;;;17.00;7.40;;;;;;;10.77;94.42;100225.59;5107392;28;20457;-66
2022/09/19 04:52:53;;;;;;;17.47;7.77;;;;;;;10.84;94.20;100238.22;5094107;28;20488;-67
2022/09/19 04:55:19;;;;;;;20.57;8.47;;;;;;;10.81;94.24;100230.50;5101240;28;20450;-67
2022/09/19 04:57:47;;;;;;;22.33;7.17;;;;;;;10.82;94.46;100239.38;5098720;28;20419;-66
2022/09/19 05:00:15;;;;;;;14.80;8.07;;;;;;;10.95;93.98;100234.56;5115886;28;20462;-67
2022/09/19 05:02:41;;;;;;;15.23;7.60;;;;;;;10.94;93.70;100238.22;5107899;28;20998;-68
2022/09/19 05:05:08;;;;;;;18.00;6.83;;;;;;;10.85;93.73;100239.06;5106087;28;20462;-66
2022/09/19 05:07:35;;;;;;;19.97;6.50;;;;;;;10.91;93.61;100238.50;5094850;28;20537;-66
2022/09/19 05:10:02;;;;;;;18.13;6.70;;;;;;;10.84;93.74;100235.56;5101296;28;20529;-67
2022/09/19 05:12:29;;;;;;;15.80;7.00;;;;;;;10.93;93.57;100242.72;5095265;28;21116;-65
2022/09/19 05:14:57;;;;;;;13.60;6.17;;;;;;;10.97;93.69;100250.47;5119185;28;20795;-66
2022/09/19 05:17:25;;;;;;;19.00;7.07;;;;;;;10.85;93.55;100237.25;5088216;28;20463;-69
2022/09/19 05:19:52;;;;;;;21.10;7.43;;;;;;;10.91;93.65;100242.00;5089814;28;20482;-66
2022/09/19 05:22:19;;;;;;;22.00;6.93;;;;;;;10.98;93.59;100253.00;5097431;28;20475;-67
2022/09/19 05:24:46;;;;;;;15.67;7.13;;;;;;;10.97;93.61;100247.78;5098678;28;20509;-66
2022/09/19 05:27:12;;;;;;;19.93;6.97;;;;;;;10.96;93.70;100264.84;5117706;28;20506;-66
2022/09/19 05:29:39;;;;;;;19.87;6.50;;;;;;;11.14;93.32;100265.78;5105598;28;20458;-66
2022/09/19 05:32:08;;;;;;;13.17;6.33;;;;;;;11.17;93.21;100264.66;5094823;28;20475;-72
2022/09/19 05:34:34;;;;;;;17.43;6.03;;;;;;;11.15;92.98;100256.78;5105897;28;20466;-71
2022/09/19 05:37:01;;;;;;;15.57;6.30;;;;;;;11.16;93.07;100266.47;5120341;28;20474;-72
2022/09/19 05:39:28;;;;;;;17.90;6.03;;;;;;;11.16;92.73;100271.81;5117369;28;20440;-72
2022/09/19 05:41:54;;;;;;;18.70;6.43;;;;;;;11.38;92.33;100272.50;5097406;28;20976;-72
2022/09/19 05:44:22;;;;;;;16.63;6.27;;;;;;;11.40;92.04;100281.22;5095602;28;20495;-72
2022/09/19 05:46:49;;;;;;;14.00;6.07;;;;;;;11.38;92.24;100281.34;5096870;28;20475;-72
2022/09/19 05:49:18;;;;;;;18.00;5.80;;;;;;;11.33;92.34;100274.75;5096317;28;20448;-70
2022/09/19 05:51:44;;;;;;;18.03;5.07;;;;;;;11.43;92.00;100279.09;5094618;28;20501;-72
2022/09/19 05:54:10;;;;;;;15.00;5.00;;;;;;;11.45;91.99;100284.31;5089738;28;20456;-72
2022/09/19 05:56:37;;;;;;;19.07;5.47;;;;;;;11.49;91.97;100291.91;5084118;28;20517;-71
2022/09/19 05:59:04;;;;;;;18.03;6.97;;;;;;;11.54;91.87;100285.25;5092944;28;20469;-72
2022/09/19 06:01:30;;;;;;;13.43;6.03;;;;;;;11.53;91.63;100289.78;5093183;28;20498;-72
2022/09/19 06:03:59;;;;;;;23.93;6.13;;;;;;;11.60;91.91;100290.03;5098447;28;20455;-73
2022/09/19 06:06:27;;;;;;;15.10;6.03;;;;;;;11.82;91.35;100288.81;5098136;27;20475;-73
2022/09/19 06:08:58;;;;;;;21.87;7.30;;;;;;;11.94;90.72;100293.00;5098824;28;20439;-72
2022/09/19 06:11:25;;;;;;;17.23;7.27;;;;;;;11.97;90.23;100291.88;5093501;28;20467;-72
2022/09/19 06:16:37;;;;;;;12.37;7.20;;;;;;;11.82;90.10;100295.03;5094511;28;21038;-72
2022/09/19 06:19:04;;;;;;;19.83;7.33;;;;;;;11.76;90.54;100297.44;5092892;28;20451;-71
2022/09/19 06:21:33;;;;;;;17.97;6.80;;;;;;;11.76;90.71;100292.94;5099018;28;20482;-71
2022/09/19 06:24:01;;;;;;;18.23;8.00;;;;;;;11.78;91.51;100301.66;5098949;28;20454;-71
2022/09/19 06:26:27;;;;;;;18.10;7.13;;;;;;;11.82;91.01;100299.53;5096031;28;20558;-70
2022/09/19 06:28:54;;;;;;;23.87;8.77;;;;;;;11.59;91.89;100310.59;5098257;28;20443;-71
2022/09/19 06:31:21;;;;;;;20.00;8.40;;;;;;;11.58;92.24;100303.56;5082728;28;20475;-71
2022/09/19 06:33:47;;;;;;;21.13;8.00;;;;;;;11.66;91.97;100316.22;5095639;28;20478;-71
2022/09/19 06:36:14;;;;;;;26.90;8.33;;;;;;;11.59;92.58;100310.59;5099220;28;20508;-73
2022/09/19 06:38:43;;;;;;;22.23;7.90;;;;;;;11.80;92.29;100310.38;5098732;28;20471;-71
2022/09/19 06:41:10;;;;;;;20.70;8.60;;;;;;;12.08;91.77;100323.00;5093381;28;20521;-71
2022/09/19 06:43:37;;;;;;;22.57;8.20;;;;;;;11.81;91.10;100324.66;5086479;28;20471;-71
2022/09/19 06:46:04;;;;;;;15.10;7.63;;;;;;;12.06;90.97;100325.81;5090222;28;20500;-71
2022/09/19 06:48:31;;;;;;;21.10;8.20;;;;;;;12.03;90.83;100320.75;5088042;28;20899;-70
2022/09/19 06:50:58;;;;;;;15.67;8.20;;;;;;;12.08;90.90;100323.84;5090763;28;20462;-72
2022/09/19 06:53:25;;;;;;;14.57;7.33;;;;;;;12.17;90.36;100322.09;5091026;28;20517;-72
2022/09/19 06:55:53;;;;;;;13.63;5.90;;;;;;;12.13;90.67;100326.91;5085557;28;20475;-72
2022/09/19 06:58:20;;;;;;;16.50;7.77;;;;;;;12.22;90.38;100325.16;5092856;28;20455;-70
2022/09/19 07:00:47;;;;;;;16.47;6.63;;;;;;;12.38;89.83;100327.22;5097040;28;20990;-72
2022/09/19 07:03:15;;;;;;;18.10;7.03;;;;;;;12.73;88.17;100336.31;5096672;28;20443;-71
2022/09/19 07:05:44;;;;;;;10.27;6.03;;;;;;;12.96;87.15;100334.81;5098028;28;20517;-72
2022/09/19 07:08:12;;;;;;;13.13;6.10;;;;;;;12.91;86.27;100339.81;5095633;28;20555;-71
2022/09/19 07:10:39;;;;;;;11.17;5.33;;;;;;;12.96;85.94;100334.81;5087066;28;20462;-71
2022/09/19 07:13:09;;;;;;;14.40;6.67;;;;;;;13.15;85.75;100339.19;5098672;28;20565;-71
2022/09/19 07:15:37;;;;;;;14.83;7.13;;;;;;;13.23;84.41;100340.25;5094084;28;20456;-71
2022/09/19 07:18:08;;;;;;;18.90;5.80;;;;;;;13.91;82.57;100351.16;5087849;28;20443;-69
2022/09/19 07:20:35;;;;;;;15.63;5.70;;;;;;;13.99;81.24;100347.69;5096860;28;20543;-68
2022/09/19 07:23:03;;;;;;;11.63;6.07;;;;;;;14.13;80.36;100354.31;5097649;28;20461;-69
2022/09/19 07:25:31;;;;;;;14.13;5.00;;;;;;;13.67;81.50;100349.16;5097142;27;21138;-69
2022/09/19 07:27:59;;;;;;;13.17;4.57;;;;;;;13.47;81.96;100351.22;5097209;28;20467;-69
2022/09/19 07:30:27;;;;;;;12.97;5.03;;;;;;;13.18;83.48;100351.47;5098363;28;20426;-69
2022/09/19 07:32:57;;;;;;;16.80;5.03;;;;;;;13.00;84.59;100346.97;5090433;28;20589;-68
2022/09/19 07:35:24;;;;;;;9.53;4.40;;;;;;;12.91;85.33;100358.59;5092258;28;20432;-71
2022/09/19 07:37:51;;;;;;;10.10;4.73;;;;;;;12.91;85.52;100355.06;5098347;28;20453;-71
2022/09/19 07:40:18;;;;;;;9.70;4.60;;;;;;;12.84;86.55;100357.53;5096527;28;20486;-71
2022/09/19 07:42:45;;;;;;;12.03;4.93;;;;;;;13.03;85.84;100353.00;5094867;28;20448;-71
2022/09/19 07:45:11;;;;;;;11.07;4.00;;;;;;;13.29;85.33;100363.81;5081546;28;20516;-72
2022/09/19 07:47:43;;;;;;;11.93;5.20;;;;;;;13.74;83.96;100365.50;5093074;28;20518;-71
2022/09/19 07:50:12;;;;;;;7.93;5.63;;;;;;;13.80;83.30;100372.06;5092365;28;20479;-71
2022/09/19 07:52:39;;;;;;;10.30;5.20;;;;;;;13.75;82.93;100372.56;5101734;28;20503;-72
2022/09/19 07:55:07;;;;;;;12.20;4.77;;;;;;;14.04;81.85;100372.22;5101257;28;20431;-71
2022/09/19 07:57:33;;;;;;;10.57;4.40;;;;;;;13.69;81.09;100373.19;5101579;28;20431;-72
2022/09/19 08:00:00;;;;;;;15.43;4.10;;;;;;;13.43;81.81;100389.28;5100757;28;20435;-71
2022/09/19 08:02:27;;;;;;;12.30;3.63;;;;;;;13.73;81.42;100382.59;5099668;28;20484;-71
2022/09/19 08:04:55;;;;;;;15.13;3.80;;;;;;;14.25;80.20;100385.28;5101465;28;20491;-71
2022/09/19 08:07:22;;;;;;;6.50;3.30;;;;;;;16.40;71.45;100383.50;5101370;28;20511;-72
2022/09/19 08:09:48;;;;;;;8.13;2.30;;;;;;;16.79;67.57;100379.91;5100286;28;20435;-72
2022/09/19 08:12:15;;;;;;;7.90;2.00;;;;;;;16.61;66.08;100382.88;5101334;28;20482;-70
2022/09/19 08:14:42;;;;;;;6.07;2.20;;;;;;;16.30;68.21;100387.25;5098437;28;20533;-71
2022/09/19 08:17:09;;;;;;;6.73;1.77;;;;;;;16.19;68.11;100385.75;5099493;28;20462;-71
2022/09/19 08:19:36;;;;;;;6.67;2.20;;;;;;;15.76;70.20;100382.50;5096583;28;20448;-69
2022/09/19 08:22:04;;;;;;;5.07;1.60;;;;;;;15.38;72.57;100392.97;5099837;28;21134;-70
2022/09/19 08:24:31;;;;;;;8.17;2.63;;;;;;;14.89;73.90;100392.88;5098344;28;20457;-71
2022/09/19 08:26:58;;;;;;;12.90;3.70;;;;;;;14.95;74.15;100404.88;5099296;27;20477;-71
2022/09/19 08:29:26;;;;;;;10.00;2.97;;;;;;;14.73;75.45;100403.63;5095987;28;20455;-71
2022/09/19 08:31:53;;;;;;;7.27;3.20;;;;;;;14.67;75.85;100397.91;5099484;28;20469;-71
2022/09/19 08:34:20;;;;;;;7.40;2.30;;;;;;;15.47;72.95;100395.63;5095445;28;20467;-71
2022/09/19 08:36:47;;;;;;;4.63;1.73;;;;;;;15.42;71.83;100393.47;5100819;28;20468;-71
2022/09/19 08:39:15;;;;;;;9.00;1.97;;;;;;;15.33;71.89;100406.09;5100412;28;20427;-71
2022/09/19 08:41:54;;;;;;;10.07;2.00;;;;;;;15.67;71.50;100399.66;5100896;28;20485;-71
2022/09/19 08:44:26;;;;;;;8.10;1.77;;;;;;;15.75;70.53;100409.63;5074923;28;20947;-71
2022/09/19 08:46:56;;;;;;;6.20;2.00;;;;;;;15.68;71.03;100405.91;5091233;28;20780;-70
2022/09/19 08:49:27;;;;;;;8.37;1.87;;;;;;;15.40;72.44;100409.78;5094931;28;20477;-71
2022/09/19 08:51:57;;;;;;;9.13;2.20;;;;;;;15.25;72.10;100419.53;5100469;27;21044;-71
2022/09/19 08:54:30;;;;;;;8.87;2.40;;;;;;;15.74;70.69;100411.44;5099961;28;20940;-71
2022/09/19 08:56:58;;;;;;;7.07;2.17;;;;;;;17.37;64.93;100410.94;5099421;28;20669;-71
2022/09/19 08:59:26;;;;;;;3.60;1.30;;;;;;;18.03;61.24;100418.47;5099724;28;20451;-70
2022/09/19 09:01:59;;;;;;;8.70;1.83;;;;;;;18.89;58.45;100418.81;5098294;28;20485;-70
2022/09/19 09:04:30;;;;;;;11.57;2.10;;;;;;;18.27;61.58;100414.66;5080729;28;20896;-71
2022/09/19 09:07:13;;;;;;;5.60;1.80;;;;;;;17.53;61.51;100422.66;5099775;28;20500;-71
2022/09/19 09:09:52;;;;;;;10.23;1.87;;;;;;;17.14;64.23;100424.47;5099869;28;20520;-71
2022/09/19 09:12:26;;;;;;;5.30;1.40;;;;;;;17.19;63.32;100430.16;5099402;28;20520;-71
2022/09/19 09:15:03;;;;;;;10.17;2.23;;;;;;;18.31;59.89;100424.09;5100505;28;20428;-70
2022/09/19 09:17:37;;;;;;;6.57;2.47;;;;;;;19.04;58.01;100435.00;5093453;28;20479;-71
2022/09/19 09:20:18;;;;;;;9.67;2.00;;;;;;;17.53;61.05;100430.75;5100621;28;20458;-71
2022/09/19 09:22:46;;;;;;;8.40;1.90;;;;;;;17.05;63.77;100430.94;5095259;28;20461;-71
2022/09/19 09:25:18;;;;;;;9.07;2.00;;;;;;;17.65;61.96;100434.69;5091043;27;20447;-69
2022/09/19 09:27:53;;;;;;;6.23;1.90;;;;;;;17.81;61.54;100431.00;5100617;28;20500;-71
2022/09/19 09:30:21;;;;;;;6.03;2.03;;;;;;;17.41;62.05;100438.44;5099827;28;20903;-70
2022/09/19 09:32:49;;;;;;;6.43;1.70;;;;;;;17.53;62.45;100430.75;5098490;28;20456;-70
2022/09/19 09:35:27;;;;;;;5.73;1.77;;;;;;;16.64;64.74;100436.53;5091695;28;20469;-70
2022/09/19 09:38:00;;;;;;;8.23;1.83;;;;;;;16.92;64.01;100434.22;5100255;28;20701;-71
2022/09/19 09:43:23;;;;;;;7.23;2.17;;;;;;;17.64;61.19;100424.94;5097727;28;20942;-71
2022/09/19 09:45:52;;;;;;;11.70;2.10;;;;;;;17.67;62.29;100422.69;5096925;28;20475;-69
2022/09/19 09:48:24;;;;;;;4.47;1.30;;;;;;;16.76;63.70;100421.63;5098781;28;20509;-71
2022/09/19 09:51:00;;;;;;;9.53;2.67;;;;;;;16.99;65.98;100423.53;5089691;28;20463;-70
2022/09/19 09:53:35;;;;;;;12.23;3.07;;;;;;;16.99;66.35;100428.94;5098294;28;20457;-70
2022/09/19 09:56:15;;;;;;;9.20;2.70;;;;;;;16.87;66.95;100418.56;5099104;28;20479;-70
2022/09/19 09:58:49;;;;;;;9.43;1.90;;;;;;;16.57;68.07;100417.47;5099814;28;20455;-70
2022/09/19 10:04:17;;;;;;;7.43;2.00;;;;;;;17.94;62.05;100416.91;5093900;28;20510;-70
2022/09/19 10:06:52;;;;;;;11.30;2.43;;;;;;;18.40;59.69;100420.28;5099310;28;20479;-71
2022/09/19 10:09:21;;;;;;;7.37;2.40;;;;;;;18.68;59.93;100416.88;5098651;28;21114;-71
2022/09/19 10:11:54;;;;;;;8.73;2.17;;;;;;;18.01;61.31;100415.97;5096130;28;20484;-71
2022/09/19 10:14:23;;;;;;;4.33;1.57;;;;;;;18.51;59.84;100410.00;5091986;28;20483;-71
2022/09/19 10:16:52;;;;;;;8.37;2.10;;;;;;;18.15;60.58;100418.88;5089119;28;20571;-71
2022/09/19 10:19:26;;;;;;;7.73;2.27;;;;;;;18.35;59.36;100411.00;5095476;28;20959;-71
2022/09/19 10:21:52;;;;;;;12.43;2.37;;;;;;;20.18;56.12;100408.91;5106403;28;20900;-72
2022/09/19 10:24:42;;;;;;;6.63;1.50;;;;;;;19.93;54.20;100399.34;5097864;28;20457;-71
2022/09/19 10:27:15;;;;;;;10.40;2.13;;;;;;;18.52;57.20;100408.94;5087796;28;20536;-71
2022/09/19 10:29:56;;;;;;;8.70;1.80;;;;;;;19.68;53.45;100406.22;5097601;28;20444;-71
2022/09/19 10:32:24;;;;;;;6.77;1.67;;;;;;;20.00;53.84;100401.25;5096883;28;21140;-71
2022/09/19 10:34:51;;;;;;;7.93;1.87;;;;;;;20.03;51.69;100404.44;5093253;28;20463;-71
2022/09/19 10:37:21;;;;;;;6.17;2.50;;;;;;;19.99;52.40;100395.00;5098672;28;20507;-71
2022/09/19 10:39:48;;;;;;;9.27;1.67;;;;;;;18.75;56.49;100393.41;5090363;28;21119;-71
2022/09/19 10:42:37;;;;;;;7.50;1.77;;;;;;;18.93;55.17;100395.72;5085388;28;20472;-72
2022/09/19 10:45:16;;;;;;;8.20;1.60;;;;;;;17.30;60.07;100391.91;5095516;28;20554;-72
2022/09/19 10:47:42;;;;;;;6.33;1.73;;;;;;;18.23;56.43;100394.44;5088684;28;21095;-72
2022/09/19 10:50:14;;;;;;;3.23;1.10;;;;;;;20.81;48.83;100387.06;5090459;28;20501;-72
2022/09/19 10:52:44;;;;;;;8.20;1.30;;;;;;;22.40;44.67;100388.13;5080109;28;20890;-71
2022/09/19 10:55:14;;;;;;;8.43;1.93;;;;;;;21.17;47.45;100399.47;5100208;28;20509;-71
2022/09/19 10:57:44;;;;;;;3.90;0.97;;;;;;;20.31;49.47;100392.66;5092737;28;20455;-71
2022/09/19 11:00:27;;;;;;;7.10;1.80;;;;;;;22.47;44.77;100388.91;5094593;28;20958;-72
2022/09/19 11:03:00;;;;;;;7.90;1.80;;;;;;;21.91;45.54;100386.75;5084712;28;20476;-72
2022/09/19 11:05:29;;;;;;;5.97;1.50;;;;;;;21.19;46.54;100381.06;5086521;28;20476;-73
2022/09/19 11:07:59;;;;;;;6.30;1.67;;;;;;;20.20;48.60;100379.66;5095831;28;20472;-74
2022/09/19 11:10:33;;;;;;;8.73;1.83;;;;;;;19.62;49.85;100385.31;5095646;28;20521;-72
2022/09/19 11:13:11;;;;;;;8.27;1.50;;;;;;;21.56;45.89;100395.13;5096808;28;20456;-73
2022/09/19 11:15:59;;;;;;;6.27;1.50;;;;;;;20.80;46.26;100396.25;5094455;28;20464;-73
2022/09/19 11:18:32;;;;;;;11.70;1.80;;;;;;;19.95;48.05;100396.44;5093190;28;20502;-73
2022/09/19 11:21:08;;;;;;;5.90;1.33;;;;;;;20.97;46.42;100397.56;5095379;28;20484;-73
2022/09/19 11:23:56;;;;;;;8.60;1.90;;;;;;;20.81;46.23;100390.59;5087427;28;20464;-72
2022/09/19 11:26:30;;;;;;;10.93;2.70;;;;;;;21.55;45.28;100393.47;5099330;28;20533;-72
2022/09/19 11:29:09;;;;;;;6.23;1.53;;;;;;;20.99;45.96;100406.34;5096628;28;21046;-73
2022/09/19 11:31:42;;;;;;;12.50;1.63;;;;;;;19.82;50.08;100402.59;5097464;28;20484;-72
2022/09/19 11:34:18;;;;;;;8.03;1.93;;;;;;;19.81;49.91;100400.06;5097038;28;20464;-73
2022/09/19 11:36:56;;;;;;;8.83;2.53;;;;;;;18.95;51.84;100406.38;5101854;28;20546;-71
2022/09/19 11:39:30;;;;;;;9.87;1.90;;;;;;;18.06;53.79;100415.41;5102653;28;20447;-72
2022/09/19 11:42:06;;;;;;;5.70;1.50;;;;;;;17.37;55.60;100424.44;5091627;28;20476;-72